Time;durP1;ratioP1;P1;durP2;ratioP2;P2;SDS_P1;SDS_P2;PMS_P1;PMS_P2;Temp;Humidity;BMP_temperature;BMP_pressure;BME280_temperature;BME280_humidity;BME280_pressure;Samples;Min_cycle;Max_cycle;Signal;HPM_P1;HPM_P2
2023/03/30 00:00:48;;;;;;;32.10;16.85;;;10.50;99.90;;;;;;5074318;28;20058;-83
2023/03/30 00:03:18;;;;;;;30.45;16.85;;;10.40;99.90;;;;;;5078999;28;20044;-83
2023/03/30 00:05:45;;;;;;;23.73;15.32;;;10.40;99.90;;;;;;5043862;28;20080;-85
2023/03/30 00:08:13;;;;;;;29.10;15.70;;;10.40;99.90;;;;;;5094747;28;20045;-84
2023/03/30 00:10:39;;;;;;;28.10;14.52;;;10.50;99.90;;;;;;5066390;28;20900;-84
2023/03/30 00:13:06;;;;;;;24.77;14.80;;;10.50;99.90;;;;;;5074450;28;20043;-84
2023/03/30 00:15:33;;;;;;;25.40;14.80;;;10.50;99.90;;;;;;5087923;28;20056;-84
2023/03/30 00:18:00;;;;;;;24.85;13.60;;;10.50;99.90;;;;;;5065443;28;20043;-84
2023/03/30 00:20:26;;;;;;;21.80;13.70;;;10.50;99.90;;;;;;5059140;28;20497;-84
2023/03/30 00:22:52;;;;;;;25.23;14.13;;;10.40;99.90;;;;;;5043533;28;20046;-84
2023/03/30 00:25:18;;;;;;;20.08;12.32;;;10.50;99.90;;;;;;5073024;28;20051;-84
2023/03/30 00:27:44;;;;;;;20.45;12.35;;;10.50;99.90;;;;;;5044998;28;20124;-86
2023/03/30 00:30:14;;;;;;;21.52;12.82;;;10.50;99.90;;;;;;5073428;28;20397;-83
2023/03/30 00:32:40;;;;;;;20.02;11.80;;;10.50;99.90;;;;;;5065468;28;20048;-84
2023/03/30 00:35:06;;;;;;;16.30;11.63;;;10.50;99.90;;;;;;5067272;28;20048;-84
2023/03/30 00:37:36;;;;;;;17.55;11.93;;;10.50;99.90;;;;;;5060549;28;20500;-84
2023/03/30 00:40:06;;;;;;;17.40;11.43;;;10.50;99.90;;;;;;5075469;28;20048;-84
2023/03/30 00:42:33;;;;;;;19.13;10.88;;;10.40;99.90;;;;;;5050220;28;20052;-85
2023/03/30 00:45:24;;;;;;;19.05;10.90;;;10.50;99.90;;;;;;5066375;28;20040;-84
2023/03/30 00:48:06;;;;;;;17.27;10.15;;;10.50;99.90;;;;;;5064403;28;20062;-85
2023/03/30 00:50:39;;;;;;;14.88;9.75;;;10.40;99.90;;;;;;5068483;28;20393;-84
2023/03/30 00:53:15;;;;;;;16.33;10.50;;;10.50;99.90;;;;;;5071398;28;20047;-85
2023/03/30 00:55:45;;;;;;;21.42;10.65;;;10.50;99.90;;;;;;5052929;28;20100;-85
2023/03/30 00:58:11;;;;;;;17.40;9.18;;;10.40;99.90;;;;;;5054366;28;20075;-84
2023/03/30 01:00:39;;;;;;;11.68;8.05;;;10.40;99.90;;;;;;5072021;28;20101;-85
2023/03/30 01:03:13;;;;;;;13.90;7.60;;;10.40;99.90;;;;;;5085032;28;20558;-85
2023/03/30 01:05:41;;;;;;;11.05;7.38;;;10.40;99.90;;;;;;5072965;28;20074;-86
2023/03/30 01:08:08;;;;;;;11.38;7.03;;;10.40;99.90;;;;;;5071125;28;20749;-84
2023/03/30 01:10:34;;;;;;;11.45;7.15;;;10.40;99.90;;;;;;5070370;28;20054;-84
2023/03/30 01:13:00;;;;;;;11.77;6.15;;;10.50;99.90;;;;;;5033551;28;20047;-85
2023/03/30 01:15:32;;;;;;;12.90;6.78;;;10.50;99.90;;;;;;5070269;28;20047;-86
2023/03/30 01:18:29;;;;;;;11.25;5.95;;;10.50;99.90;;;;;;5072301;28;20126;-85
2023/03/30 01:21:03;;;;;;;;;;;10.60;99.90;;;;;;5060276;28;20052;-85
2023/03/30 01:24:20;;;;;;;12.23;5.50;;;10.60;99.90;;;;;;5044990;28;19947;-85
2023/03/30 01:27:09;;;;;;;8.70;5.80;;;10.60;99.90;;;;;;5024073;28;20056;-85
2023/03/30 01:30:29;;;;;;;9.73;5.88;;;10.50;99.90;;;;;;5053252;28;20407;-84
2023/03/30 01:33:22;;;;;;;11.38;5.95;;;10.60;99.90;;;;;;4993592;28;20594;-85
2023/03/30 01:36:03;;;;;;;8.77;5.93;;;10.60;99.90;;;;;;5058769;28;20134;-85
2023/03/30 01:38:57;;;;;;;9.48;6.13;;;10.60;99.90;;;;;;5052045;28;20124;-85
2023/03/30 01:42:03;;;;;;;10.98;5.32;;;10.60;99.90;;;;;;5071653;28;20127;-85
2023/03/30 01:44:35;;;;;;;10.45;5.82;;;10.60;99.90;;;;;;5067844;28;20049;-85
2023/03/30 01:47:26;;;;;;;9.27;5.00;;;10.60;99.90;;;;;;5053019;28;20055;-84
2023/03/30 01:50:12;;;;;;;11.68;5.80;;;10.60;99.90;;;;;;5063848;28;20047;-84
2023/03/30 01:52:52;;;;;;;8.48;5.10;;;10.70;99.90;;;;;;5086629;28;20123;-84
2023/03/30 01:55:40;;;;;;;11.35;5.43;;;10.70;99.90;;;;;;5061653;28;20048;-83
2023/03/30 01:58:20;;;;;;;10.93;5.40;;;10.70;99.90;;;;;;5072715;28;20476;-84
2023/03/30 02:00:49;;;;;;;8.00;5.68;;;10.70;99.90;;;;;;5062118;28;20040;-83
2023/03/30 02:03:38;;;;;;;9.88;5.15;;;10.70;99.90;;;;;;5072301;28;20051;-84
2023/03/30 02:06:16;;;;;;;8.68;5.50;;;10.70;99.90;;;;;;5048737;28;21341;-84
2023/03/30 02:08:43;;;;;;;9.15;5.82;;;10.70;99.90;;;;;;5069763;28;20502;-84
2023/03/30 02:11:09;;;;;;;9.40;5.53;;;10.70;99.90;;;;;;5062150;28;20044;-83
2023/03/30 02:13:36;;;;;;;10.52;5.10;;;10.70;99.90;;;;;;5054034;28;20412;-84
2023/03/30 02:16:08;;;;;;;7.20;5.20;;;10.70;99.90;;;;;;5082971;28;20078;-84
2023/03/30 02:18:37;;;;;;;8.82;5.00;;;10.60;99.90;;;;;;5059041;28;20540;-84
2023/03/30 02:21:04;;;;;;;9.88;5.28;;;10.60;99.90;;;;;;5047184;28;20048;-84
2023/03/30 02:23:35;;;;;;;8.45;5.53;;;10.50;99.90;;;;;;5071673;28;20052;-84
2023/03/30 02:26:01;;;;;;;9.68;5.13;;;10.50;99.90;;;;;;5088430;28;20048;-85
2023/03/30 02:28:27;;;;;;;7.00;4.55;;;10.50;99.90;;;;;;5066114;28;20040;-85
2023/03/30 02:30:53;;;;;;;8.93;4.85;;;10.50;99.90;;;;;;5053789;28;20089;-85
2023/03/30 02:33:47;;;;;;;13.00;5.15;;;10.50;99.90;;;;;;5053487;28;20040;-84
2023/03/30 02:36:37;;;;;;;12.10;5.95;;;10.60;99.90;;;;;;5053352;28;20048;-84
2023/03/30 02:39:34;;;;;;;12.63;5.13;;;10.60;99.90;;;;;;5060089;28;20090;-85
2023/03/30 02:42:23;;;;;;;11.27;4.82;;;10.70;99.90;;;;;;5048877;28;20148;-85
2023/03/30 02:45:01;;;;;;;9.57;4.57;;;10.70;99.90;;;;;;5050156;28;20101;-84
2023/03/30 02:47:50;;;;;;;9.93;4.38;;;10.70;99.90;;;;;;5070433;28;20050;-84
2023/03/30 02:50:42;;;;;;;6.57;4.47;;;10.80;99.90;;;;;;5070956;28;20378;-85
2023/03/30 02:53:22;;;;;;;7.43;4.47;;;10.70;99.90;;;;;;5079735;28;20044;-85
2023/03/30 02:56:20;;;;;;;10.57;5.10;;;10.70;99.90;;;;;;5053179;28;20189;-85
2023/03/30 02:58:54;;;;;;;7.68;4.30;;;10.70;99.90;;;;;;5052527;28;20595;-84
2023/03/30 03:01:33;;;;;;;11.25;4.90;;;10.60;99.90;;;;;;5067837;28;20044;-84
2023/03/30 03:04:00;;;;;;;9.07;4.65;;;10.50;99.90;;;;;;5068079;28;20083;-85
2023/03/30 03:06:27;;;;;;;8.20;4.43;;;10.40;99.90;;;;;;5064158;28;20036;-84
2023/03/30 03:08:54;;;;;;;6.32;4.28;;;10.40;99.90;;;;;;5064907;28;20404;-85
2023/03/30 03:11:20;;;;;;;7.07;4.30;;;10.30;99.90;;;;;;5059330;28;20058;-85
2023/03/30 03:13:46;;;;;;;6.68;4.88;;;10.30;99.90;;;;;;5066647;28;20043;-85
2023/03/30 03:16:12;;;;;;;9.98;4.40;;;10.20;99.90;;;;;;5050931;28;20036;-85
2023/03/30 03:18:40;;;;;;;8.82;4.70;;;10.20;99.90;;;;;;5055094;28;20485;-86
2023/03/30 03:21:10;;;;;;;5.97;4.20;;;10.20;99.90;;;;;;5073796;28;20056;-85
2023/03/30 03:23:36;;;;;;;8.00;4.00;;;10.30;99.90;;;;;;5060902;28;20086;-85
2023/03/30 03:26:03;;;;;;;7.18;4.32;;;10.30;99.90;;;;;;5052373;28;20075;-84
2023/03/30 03:28:30;;;;;;;6.88;3.90;;;10.30;99.90;;;;;;5058878;28;20606;-84
2023/03/30 03:30:57;;;;;;;7.28;3.58;;;10.20;99.90;;;;;;5081191;28;20040;-84
2023/03/30 03:33:23;;;;;;;8.48;4.07;;;10.20;99.90;;;;;;5086602;28;20063;-85
2023/03/30 03:35:52;;;;;;;10.18;4.15;;;10.20;99.90;;;;;;5053912;28;20047;-84
2023/03/30 03:38:21;;;;;;;6.30;3.60;;;10.20;99.90;;;;;;5053258;28;20398;-84
2023/03/30 03:40:52;;;;;;;7.65;3.63;;;10.20;99.90;;;;;;5063805;28;20044;-85
2023/03/30 03:43:18;;;;;;;6.70;3.53;;;10.20;99.90;;;;;;5069116;28;20509;-84
2023/03/30 03:45:45;;;;;;;8.65;3.53;;;10.20;99.90;;;;;;5074928;28;20123;-84
2023/03/30 03:48:11;;;;;;;4.95;3.40;;;10.30;99.40;;;;;;5059645;28;20861;-84
2023/03/30 03:50:37;;;;;;;5.70;3.33;;;10.30;96.70;;;;;;5061019;28;20048;-85
2023/03/30 03:53:03;;;;;;;6.72;3.38;;;10.40;95.80;;;;;;5060091;28;20039;-85
2023/03/30 03:55:29;;;;;;;5.78;3.10;;;10.40;91.10;;;;;;5052998;28;20089;-85
2023/03/30 03:57:55;;;;;;;7.00;3.38;;;10.50;75.80;;;;;;5051136;28;20393;-85
2023/03/30 04:00:22;;;;;;;8.20;3.00;;;10.60;57.30;;;;;;5060888;28;20040;-85
2023/03/30 04:02:48;;;;;;;6.15;2.97;;;10.60;37.70;;;;;;5050652;28;20044;-85
2023/03/30 04:05:13;;;;;;;6.10;2.95;;;10.70;38.90;;;;;;5070894;28;20078;-86
2023/03/30 04:07:40;;;;;;;6.25;2.83;;;10.80;25.50;;;;;;5056293;28;20114;-85
2023/03/30 04:10:06;;;;;;;5.70;2.63;;;10.80;23.40;;;;;;5073618;28;20055;-86
2023/03/30 04:12:32;;;;;;;8.15;3.40;;;10.80;18.30;;;;;;5072662;28;20051;-84
2023/03/30 04:14:58;;;;;;;5.45;2.67;;;10.90;29.30;;;;;;5059410;28;20075;-84
2023/03/30 04:17:24;;;;;;;6.05;2.92;;;10.80;74.30;;;;;;5074993;28;20752;-84
2023/03/30 04:19:52;;;;;;;7.22;3.00;;;10.80;90.00;;;;;;5059876;28;20039;-83
2023/03/30 04:22:25;;;;;;;4.30;2.97;;;10.80;91.70;;;;;;5057858;28;20396;-85
2023/03/30 04:24:51;;;;;;;4.18;2.40;;;10.70;98.50;;;;;;5051103;28;20043;-85
2023/03/30 04:27:18;;;;;;;10.23;3.10;;;10.70;92.40;;;;;;5061507;28;20043;-86
2023/03/30 04:29:44;;;;;;;6.93;2.72;;;10.80;88.10;;;;;;5072993;28;20154;-84
2023/03/30 04:32:11;;;;;;;5.38;2.72;;;10.80;92.10;;;;;;5084112;28;20129;-85
2023/03/30 04:34:41;;;;;;;6.53;2.67;;;10.70;92.90;;;;;;5065231;28;20057;-84
2023/03/30 04:37:10;;;;;;;6.78;2.53;;;10.70;83.20;;;;;;5074534;28;20111;-84
2023/03/30 04:39:36;;;;;;;4.30;2.08;;;10.80;79.90;;;;;;5062487;28;20059;-85
2023/03/30 04:42:03;;;;;;;6.55;2.83;;;10.80;60.70;;;;;;5079880;28;20059;-84
2023/03/30 04:44:29;;;;;;;6.00;2.15;;;10.90;49.10;;;;;;5058251;28;20052;-84
2023/03/30 04:46:55;;;;;;;4.40;2.47;;;10.90;38.40;;;;;;5039914;28;20051;-84
2023/03/30 04:49:22;;;;;;;5.53;2.63;;;11.00;29.00;;;;;;5053851;28;20051;-86
2023/03/30 04:51:47;;;;;;;6.25;2.33;;;11.00;24.80;;;;;;5077275;28;20051;-86
2023/03/30 04:54:13;;;;;;;8.93;2.88;;;11.00;29.10;;;;;;5054314;28;20052;-84
2023/03/30 04:56:39;;;;;;;5.32;2.50;;;11.00;23.00;;;;;;5034444;28;20048;-86
2023/03/30 04:59:05;;;;;;;7.55;2.45;;;11.10;12.80;;;;;;5058484;28;20108;-86
2023/03/30 05:01:31;;;;;;;6.28;2.20;;;11.20;12.80;;;;;;5052237;28;20048;-86
2023/03/30 05:03:56;;;;;;;6.68;2.65;;;11.30;14.50;;;;;;5046013;28;20074;-85
2023/03/30 05:06:22;;;;;;;3.90;2.38;;;11.30;6.50;;;;;;5036405;28;20046;-86
2023/03/30 05:08:48;;;;;;;6.15;2.45;;;11.30;20.00;;;;;;5069181;28;20047;-86
2023/03/30 05:11:14;;;;;;;4.53;2.47;;;11.20;42.70;;;;;;5059169;28;20113;-86
2023/03/30 05:13:40;;;;;;;6.15;2.70;;;11.20;90.50;;;;;;5055617;28;20074;-85
2023/03/30 05:16:07;;;;;;;7.53;3.22;;;11.10;99.90;;;;;;5016868;28;20056;-87
2023/03/30 05:18:32;;;;;;;6.70;3.15;;;11.10;99.90;;;;;;5055769;28;20567;-87
2023/03/30 05:20:58;;;;;;;6.93;2.85;;;11.00;99.90;;;;;;5046340;28;20101;-87
2023/03/30 05:23:25;;;;;;;4.97;2.83;;;11.00;99.90;;;;;;5059574;28;20040;-88
2023/03/30 05:25:51;;;;;;;7.40;3.63;;;11.00;99.90;;;;;;5053018;28;20064;-85
2023/03/30 05:28:17;;;;;;;11.50;4.00;;;11.00;99.90;;;;;;5068601;28;20747;-85
2023/03/30 05:30:43;;;;;;;9.73;3.83;;;10.90;99.90;;;;;;5070207;28;20036;-84
2023/03/30 05:33:09;;;;;;;10.18;4.30;;;10.90;99.90;;;;;;5055124;28;20044;-87
2023/03/30 05:35:38;;;;;;;6.90;3.60;;;10.90;99.90;;;;;;5055400;28;20055;-82
2023/03/30 05:38:04;;;;;;;7.60;3.15;;;10.90;99.90;;;;;;5055683;28;20130;-83
2023/03/30 05:40:30;;;;;;;7.97;3.55;;;10.90;99.90;;;;;;5069318;28;20201;-84
2023/03/30 05:42:56;;;;;;;8.52;3.72;;;10.80;99.90;;;;;;5057751;28;20607;-85
2023/03/30 05:45:22;;;;;;;8.30;3.38;;;10.80;99.90;;;;;;5045194;28;20142;-89
2023/03/30 05:47:47;;;;;;;8.63;3.97;;;10.80;99.90;;;;;;5081049;28;20131;-89
2023/03/30 05:50:13;;;;;;;9.68;3.63;;;10.80;99.90;;;;;;5053951;28;20036;-91
2023/03/30 05:52:39;;;;;;;7.90;3.83;;;10.80;99.90;;;;;;5043556;28;20052;-91
2023/03/30 05:55:05;;;;;;;9.57;3.88;;;10.80;99.90;;;;;;5072458;28;20079;-88
2023/03/30 05:57:32;;;;;;;6.97;3.38;;;10.90;99.90;;;;;;5074847;28;20052;-85
2023/03/30 05:59:58;;;;;;;9.02;3.20;;;10.80;99.90;;;;;;5075588;28;20047;-90
2023/03/30 06:02:24;;;;;;;7.07;3.60;;;10.80;99.90;;;;;;5072937;28;20051;-88
2023/03/30 06:04:49;;;;;;;10.60;3.97;;;10.80;99.90;;;;;;5086372;28;20790;-88
2023/03/30 06:07:16;;;;;;;7.15;3.00;;;10.80;99.90;;;;;;5037004;28;20055;-91
2023/03/30 06:09:42;;;;;;;6.43;3.78;;;10.90;99.90;;;;;;5086473;28;20040;-90
2023/03/30 06:12:08;;;;;;;8.15;3.40;;;10.90;99.90;;;;;;5052004;28;20385;-90
2023/03/30 06:14:34;;;;;;;9.50;2.90;;;10.90;99.90;;;;;;5055592;28;20040;-84
2023/03/30 06:17:00;;;;;;;6.72;3.22;;;10.90;99.90;;;;;;5052988;28;20054;-88
2023/03/30 06:19:26;;;;;;;12.18;3.03;;;11.00;99.90;;;;;;5048546;28;20051;-89
2023/03/30 06:21:52;;;;;;;6.82;3.20;;;11.00;99.90;;;;;;5039651;28;20362;-89
2023/03/30 06:24:19;;;;;;;5.38;2.83;;;11.00;99.90;;;;;;5052478;28;20036;-91
2023/03/30 06:26:45;;;;;;;7.25;2.90;;;11.10;99.90;;;;;;5046436;28;20044;-89
2023/03/30 06:29:12;;;;;;;5.00;2.67;;;11.10;99.90;;;;;;5052526;28;20264;-90
2023/03/30 06:31:37;;;;;;;4.18;2.90;;;11.10;99.90;;;;;;5055956;28;20047;-87
2023/03/30 06:34:03;;;;;;;6.50;2.80;;;11.10;99.90;;;;;;5055609;28;20040;-90
2023/03/30 06:36:28;;;;;;;9.55;3.35;;;11.10;99.90;;;;;;5071726;28;20079;-92
2023/03/30 06:38:54;;;;;;;5.40;2.80;;;11.10;99.90;;;;;;5054742;28;20688;-89
2023/03/30 06:41:20;;;;;;;8.73;3.55;;;11.00;99.90;;;;;;5039600;28;20512;-89
2023/03/30 06:43:46;;;;;;;5.45;3.20;;;11.00;99.90;;;;;;5071259;28;20466;-90
2023/03/30 06:46:13;;;;;;;7.93;3.00;;;11.00;99.90;;;;;;5068825;28;20078;-90
2023/03/30 06:48:39;;;;;;;7.00;2.83;;;11.00;99.90;;;;;;5067528;28;20048;-87
2023/03/30 06:51:05;;;;;;;6.30;3.10;;;11.00;99.90;;;;;;5068284;28;20051;-87
2023/03/30 06:53:31;;;;;;;4.28;2.90;;;11.10;99.90;;;;;;5081798;28;20378;-89
2023/03/30 06:55:57;;;;;;;7.28;3.10;;;11.10;99.90;;;;;;5066955;28;20056;-90
2023/03/30 06:58:25;;;;;;;6.65;2.83;;;11.10;99.90;;;;;;5064537;28;20075;-90
2023/03/30 07:00:51;;;;;;;8.98;3.25;;;11.20;99.90;;;;;;5065783;28;20043;-90
2023/03/30 07:03:17;;;;;;;7.90;4.03;;;11.20;99.90;;;;;;5080170;28;20036;-90
2023/03/30 07:05:49;;;;;;;4.80;2.80;;;11.30;99.90;;;;;;5052732;28;20051;-90
2023/03/30 07:08:16;;;;;;;9.38;3.20;;;11.40;99.90;;;;;;5064049;28;20127;-90
2023/03/30 07:10:42;;;;;;;6.25;3.20;;;11.50;99.90;;;;;;5051786;28;20066;-85
2023/03/30 07:13:08;;;;;;;5.88;3.08;;;11.50;99.90;;;;;;5063620;28;20477;-89
2023/03/30 07:15:34;;;;;;;7.95;3.10;;;11.60;99.90;;;;;;5038243;28;20044;-89
2023/03/30 07:18:00;;;;;;;9.07;3.55;;;11.50;99.90;;;;;;5070407;28;20217;-88
2023/03/30 07:20:26;;;;;;;10.35;3.03;;;11.60;99.90;;;;;;5061809;28;20502;-91
2023/03/30 07:22:52;;;;;;;8.95;3.15;;;11.60;99.90;;;;;;5051964;28;20176;-88
2023/03/30 07:25:17;;;;;;;8.55;2.63;;;11.60;99.10;;;;;;5038546;28;20048;-89
2023/03/30 07:27:43;;;;;;;11.77;2.80;;;11.60;90.70;;;;;;5070423;28;20051;-85
2023/03/30 07:30:09;;;;;;;8.05;2.50;;;11.60;90.20;;;;;;5038445;28;20110;-89
2023/03/30 07:32:35;;;;;;;9.88;3.13;;;11.60;88.60;;;;;;5054705;28;20059;-89
2023/03/30 07:35:01;;;;;;;12.70;3.75;;;11.70;48.60;;;;;;5070064;28;20401;-89
2023/03/30 07:37:27;;;;;;;12.05;3.03;;;11.70;43.50;;;;;;5068942;28;20056;-87
2023/03/30 07:39:54;;;;;;;7.13;2.60;;;11.70;34.50;;;;;;5069061;28;20056;-89
2023/03/30 07:42:20;;;;;;;10.15;2.45;;;11.70;34.10;;;;;;5041381;28;20044;-87
2023/03/30 07:44:46;;;;;;;8.18;2.50;;;11.70;12.20;;;;;;5055515;28;20539;-84
2023/03/30 07:47:12;;;;;;;8.95;2.90;;;11.60;11.00;;;;;;5073446;28;20047;-88
2023/03/30 07:49:38;;;;;;;12.85;2.90;;;11.70;1.00;;;;;;5056232;28;20040;-85
2023/03/30 07:52:04;;;;;;;10.93;2.35;;;11.70;1.00;;;;;;5041805;28;20500;-87
2023/03/30 07:54:29;;;;;;;13.32;2.50;;;11.70;1.00;;;;;;5055246;28;20052;-87
2023/03/30 07:56:55;;;;;;;12.15;2.92;;;11.70;1.00;;;;;;5073139;28;20056;-89
2023/03/30 07:59:22;;;;;;;8.90;2.00;;;11.70;1.00;;;;;;5055649;28;20059;-88
2023/03/30 08:01:53;;;;;;;9.95;2.53;;;11.70;99.90;;;;;;5073828;28;20434;-84
2023/03/30 08:04:20;;;;;;;11.57;2.80;;;11.50;99.90;;;;;;5073237;28;20044;-88
2023/03/30 08:06:46;;;;;;;9.30;2.20;;;11.40;99.90;;;;;;5073932;28;20396;-89
2023/03/30 08:09:12;;;;;;;11.80;3.08;;;11.40;95.40;;;;;;5057347;28;20044;-87
2023/03/30 08:11:38;;;;;;;11.27;2.28;;;11.40;93.30;;;;;;5057314;28;20058;-87
2023/03/30 08:14:04;;;;;;;11.30;2.45;;;11.40;99.90;;;;;;5073931;28;20074;-88
2023/03/30 08:16:30;;;;;;;12.85;2.75;;;11.40;59.20;;;;;;5073871;28;20097;-88
2023/03/30 08:18:56;;;;;;;18.42;3.15;;;11.50;1.00;;;;;;5056824;28;20052;-89
2023/03/30 08:21:24;;;;;;;9.02;2.53;;;11.50;25.80;;;;;;5072688;28;20156;-88
2023/03/30 08:23:51;;;;;;;16.88;3.13;;;11.40;73.10;;;;;;5074207;28;20113;-83
2023/03/30 08:26:17;;;;;;;9.60;2.75;;;11.30;72.30;;;;;;5039765;28;20050;-88
2023/03/30 08:28:43;;;;;;;15.13;3.08;;;11.20;86.10;;;;;;5069562;28;20194;-91
2023/03/30 08:31:11;;;;;;;15.02;2.88;;;11.10;95.90;;;;;;5076050;28;20259;-90
2023/03/30 08:33:37;;;;;;;16.50;3.05;;;11.10;99.10;;;;;;5077580;28;20056;-87
2023/03/30 08:36:03;;;;;;;13.68;3.20;;;11.10;95.50;;;;;;5061957;28;20048;-89
2023/03/30 08:38:29;;;;;;;13.85;2.65;;;11.10;91.90;;;;;;5072011;28;20055;-90
2023/03/30 08:40:55;;;;;;;10.57;2.25;;;11.10;63.00;;;;;;5061906;28;20127;-88
2023/03/30 08:44:04;;;;;;;11.30;3.28;;;11.20;1.00;;;;;;5072591;28;20397;-88
2023/03/30 08:46:32;;;;;;;18.38;3.13;;;11.30;1.00;;;;;;5063269;28;20536;-88
2023/03/30 08:49:02;;;;;;;10.10;2.15;;;11.40;1.00;;;;;;5057244;28;20049;-88
2023/03/30 08:51:32;;;;;;;12.63;3.33;;;11.40;26.20;;;;;;5076295;28;20048;-89
2023/03/30 08:54:02;;;;;;;11.63;2.33;;;11.30;55.80;;;;;;5045611;28;20505;-89
2023/03/30 08:56:37;;;;;;;8.73;1.98;;;11.50;71.00;;;;;;5054214;28;20611;-90
2023/03/30 08:59:46;;;;;;;17.88;2.72;;;11.60;26.40;;;;;;5072718;28;20083;-87
2023/03/30 09:02:17;;;;;;;17.30;3.83;;;11.70;1.00;;;;;;5038161;28;20512;-88
2023/03/30 09:05:01;;;;;;;13.15;2.30;;;11.80;1.00;;;;;;5042626;28;20123;-90
2023/03/30 09:07:44;;;;;;;15.65;2.80;;;12.00;1.00;;;;;;5073225;28;20125;-87
2023/03/30 09:10:12;;;;;;;13.10;3.25;;;12.30;1.00;;;;;;5089037;28;20671;-87
2023/03/30 09:12:45;;;;;;;15.38;2.75;;;12.50;1.00;;;;;;5052851;28;20044;-87
2023/03/30 09:15:10;;;;;;;13.35;2.80;;;12.60;99.90;;;;;;5065329;28;20093;-88
2023/03/30 09:17:41;;;;;;;13.52;2.20;;;12.70;81.80;;;;;;5054765;28;20047;-87
2023/03/30 09:20:25;;;;;;;13.77;2.28;;;12.60;1.00;;;;;;5071537;28;20052;-88
2023/03/30 09:22:53;;;;;;;13.70;2.35;;;12.70;1.00;;;;;;5083070;28;20041;-87
2023/03/30 09:25:27;;;;;;;12.57;2.45;;;12.80;1.00;;;;;;5082081;28;20059;-89
2023/03/30 09:28:03;;;;;;;15.25;1.92;;;12.90;1.00;;;;;;5053725;28;20598;-88
2023/03/30 09:30:45;;;;;;;13.48;1.92;;;13.10;1.00;;;;;;5071010;28;20093;-89
2023/03/30 09:33:10;;;;;;;9.57;2.30;;;13.30;1.00;;;;;;5089374;28;20393;-88
2023/03/30 09:35:41;;;;;;;10.55;2.70;;;13.40;99.90;;;;;;5053286;28;20055;-88
2023/03/30 09:38:11;;;;;;;9.52;1.80;;;13.40;99.90;;;;;;5064030;28;20573;-90
2023/03/30 09:40:59;;;;;;;8.02;1.60;;;13.40;99.90;;;;;;5072973;28;20094;-88
2023/03/30 09:43:44;;;;;;;15.10;3.08;;;13.50;99.90;;;;;;5087309;28;20052;-87
2023/03/30 09:46:12;;;;;;;8.00;1.63;;;13.50;99.90;;;;;;5071504;28;20093;-87
2023/03/30 09:48:39;;;;;;;10.02;2.00;;;13.60;99.90;;;;;;5069575;28;20044;-89
2023/03/30 09:51:26;;;;;;;11.35;1.90;;;13.50;99.90;;;;;;5088235;28;20054;-86
2023/03/30 09:54:00;;;;;;;11.07;2.15;;;13.50;99.90;;;;;;5042658;28;20135;-87
2023/03/30 09:56:45;;;;;;;8.43;2.03;;;13.40;99.90;;;;;;5069192;28;20537;-88
2023/03/30 09:59:27;;;;;;;10.25;2.10;;;13.30;99.90;;;;;;5070422;28;20055;-87
2023/03/30 10:02:16;;;;;;;14.98;2.40;;;13.30;99.90;;;;;;5045824;28;20397;-89
2023/03/30 10:04:51;;;;;;;11.65;3.03;;;13.30;99.90;;;;;;5065685;28;20048;-88
2023/03/30 10:07:35;;;;;;;12.40;1.52;;;13.30;99.90;;;;;;5064492;28;20075;-85
2023/03/30 10:10:15;;;;;;;10.40;1.90;;;13.20;99.90;;;;;;5062125;28;20497;-88
2023/03/30 10:12:41;;;;;;;11.52;2.42;;;13.10;99.90;;;;;;5055302;28;20060;-87
2023/03/30 10:15:15;;;;;;;10.13;1.75;;;13.10;99.90;;;;;;5054446;28;20132;-87
2023/03/30 10:17:41;;;;;;;15.63;2.10;;;13.30;99.90;;;;;;5071269;28;20062;-88
2023/03/30 10:20:38;;;;;;;11.15;1.52;;;13.60;99.90;;;;;;5051776;28;20127;-83
2023/03/30 10:23:14;;;;;;;;;;;13.60;99.90;;;;;;5054603;28;20058;-87
2023/03/30 10:25:41;;;;;;;9.25;1.60;;;13.60;99.90;;;;;;5055179;28;19931;-87
2023/03/30 10:28:32;;;;;;;7.80;1.80;;;13.60;99.90;;;;;;5088482;28;20051;-88
2023/03/30 10:31:04;;;;;;;9.40;2.25;;;13.50;97.70;;;;;;5071940;28;20742;-88
2023/03/30 10:33:37;;;;;;;11.57;2.47;;;13.70;99.90;;;;;;5054929;28;20063;-86
2023/03/30 10:36:02;;;;;;;11.52;1.70;;;13.80;99.90;;;;;;5059761;28;20036;-88
2023/03/30 10:38:32;;;;;;;7.40;1.40;;;13.80;99.90;;;;;;5069972;28;20606;-88
2023/03/30 10:41:15;;;;;;;7.55;1.73;;;13.80;99.90;;;;;;5070967;28;20051;-88
2023/03/30 10:43:41;;;;;;;9.57;2.05;;;13.80;98.40;;;;;;5087411;28;20132;-88
2023/03/30 10:46:21;;;;;;;9.20;1.83;;;13.70;99.90;;;;;;5043529;28;20075;-88
2023/03/30 10:48:47;;;;;;;9.85;2.17;;;13.80;64.70;;;;;;5070906;28;20040;-87
2023/03/30 10:51:20;;;;;;;8.80;1.60;;;13.80;99.90;;;;;;5053615;28;20044;-84
2023/03/30 10:53:53;;;;;;;13.93;2.17;;;13.80;59.80;;;;;;5054847;28;20054;-87
2023/03/30 10:56:26;;;;;;;8.00;1.88;;;13.80;77.50;;;;;;5050018;28;20055;-87
2023/03/30 10:59:26;;;;;;;11.93;1.70;;;13.90;99.90;;;;;;5060482;28;20086;-86
2023/03/30 11:02:00;;;;;;;9.18;1.52;;;13.90;30.90;;;;;;5054552;28;20585;-88
2023/03/30 11:04:35;;;;;;;14.20;1.65;;;13.90;69.40;;;;;;5048066;28;20048;-87
2023/03/30 11:07:03;;;;;;;7.55;1.20;;;13.90;72.10;;;;;;5076891;28;20448;-88
2023/03/30 11:09:35;;;;;;;10.82;1.65;;;13.90;38.20;;;;;;5084762;28;20746;-88
2023/03/30 11:12:19;;;;;;;11.82;2.10;;;14.20;16.20;;;;;;5051848;28;20051;-87
2023/03/30 11:14:54;;;;;;;17.27;2.47;;;14.40;1.00;;;;;;5053930;28;20060;-87
2023/03/30 11:17:29;;;;;;;10.70;1.90;;;14.50;4.20;;;;;;5053374;28;20044;-88
2023/03/30 11:19:58;;;;;;;7.22;1.25;;;14.50;1.00;;;;;;5067668;28;20051;-87
2023/03/30 11:22:49;;;;;;;8.40;1.10;;;14.60;1.00;;;;;;5032567;28;20151;-87
2023/03/30 11:25:20;;;;;;;7.18;2.00;;;14.70;1.00;;;;;;5071115;28;20052;-83
2023/03/30 11:28:07;;;;;;;5.18;1.60;;;14.80;1.00;;;;;;5053878;28;20048;-87
2023/03/30 11:30:35;;;;;;;10.75;1.80;;;14.80;1.00;;;;;;5069890;28;20059;-86
2023/03/30 11:33:26;;;;;;;11.30;1.83;;;14.90;17.00;;;;;;5088584;28;20180;-85
2023/03/30 11:36:17;;;;;;;12.95;1.73;;;15.20;1.00;;;;;;5069623;28;20482;-87
2023/03/30 11:39:03;;;;;;;12.30;2.17;;;15.30;1.00;;;;;;5084896;28;20067;-88
2023/03/30 11:41:47;;;;;;;9.95;1.48;;;15.40;1.00;;;;;;5041390;28;20083;-88
2023/03/30 11:44:13;;;;;;;7.63;1.42;;;15.50;1.00;;;;;;5060047;28;20052;-88
2023/03/30 11:46:44;;;;;;;10.75;2.00;;;15.50;1.00;;;;;;5035474;28;20477;-87
2023/03/30 11:49:28;;;;;;;5.63;1.30;;;15.70;1.00;;;;;;5070524;28;20080;-88
2023/03/30 11:52:31;;;;;;;7.97;1.70;;;15.90;1.00;;;;;;5070250;28;20063;-87
2023/03/30 11:55:35;;;;;;;11.65;1.92;;;15.70;1.00;;;;;;5050103;28;20040;-86
2023/03/30 11:58:19;;;;;;;10.98;1.80;;;15.50;1.00;;;;;;5070678;28;20389;-89
2023/03/30 12:00:54;;;;;;;13.38;2.60;;;15.50;1.00;;;;;;5058678;28;20041;-86
2023/03/30 12:03:38;;;;;;;12.10;2.53;;;16.10;1.00;;;;;;5058375;28;20048;-87
2023/03/30 12:06:15;;;;;;;12.45;2.10;;;16.80;1.00;;;;;;5070638;28;20071;-89
2023/03/30 12:08:51;;;;;;;14.30;1.80;;;16.30;1.00;;;;;;5070677;28;20050;-88
2023/03/30 12:11:41;;;;;;;12.50;2.40;;;16.40;1.00;;;;;;5084501;28;20454;-87
2023/03/30 12:14:31;;;;;;;8.18;2.08;;;16.90;1.00;;;;;;5071282;28;20048;-88
2023/03/30 12:17:05;;;;;;;6.63;1.55;;;17.10;1.00;;;;;;5069785;28;20558;-85
2023/03/30 12:19:46;;;;;;;9.80;1.58;;;16.40;1.00;;;;;;5070822;28;20044;-87
2023/03/30 12:22:56;;;;;;;10.68;1.92;;;15.90;1.00;;;;;;5054017;28;20051;-87
2023/03/30 12:25:59;;;;;;;8.48;2.05;;;15.70;1.00;;;;;;5062953;28;20047;-83
2023/03/30 12:28:38;;;;;;;9.68;1.88;;;15.50;1.00;;;;;;5078036;28;20202;-88
2023/03/30 12:31:04;;;;;;;11.13;2.50;;;16.30;1.00;;;;;;5071059;28;20055;-90
2023/03/30 12:33:45;;;;;;;8.05;2.47;;;17.40;1.00;;;;;;5037615;28;20044;-88
2023/03/30 12:36:39;;;;;;;14.80;2.45;;;18.50;1.00;;;;;;5055400;28;20044;-89
2023/03/30 12:39:43;;;;;;;10.25;2.50;;;19.20;1.00;;;;;;5052600;28;20039;-89
2023/03/30 12:42:33;;;;;;;12.07;2.20;;;19.00;1.00;;;;;;5061560;28;20128;-89
2023/03/30 12:45:14;;;;;;;13.32;2.72;;;19.60;1.00;;;;;;5061159;28;20055;-91
2023/03/30 12:47:42;;;;;;;14.38;2.10;;;19.50;1.00;;;;;;5062677;28;20340;-88
2023/03/30 12:50:30;;;;;;;9.68;2.10;;;19.50;1.00;;;;;;5057402;28;20428;-89
2023/03/30 12:52:59;;;;;;;16.02;2.40;;;19.00;1.00;;;;;;5072000;28;20481;-89
2023/03/30 12:55:36;;;;;;;11.38;2.42;;;19.40;1.00;;;;;;5068065;28;20144;-84
2023/03/30 12:58:10;;;;;;;11.63;2.78;;;19.80;1.00;;;;;;5064970;28;20099;-88
2023/03/30 13:01:13;;;;;;;12.07;1.88;;;19.80;1.00;;;;;;5069924;28;20055;-89
2023/03/30 13:03:51;;;;;;;6.50;1.50;;;20.10;1.00;;;;;;5060324;28;20220;-90
2023/03/30 13:06:57;;;;;;;9.77;2.00;;;19.40;1.00;;;;;;5046373;28;20533;-90
2023/03/30 13:09:26;;;;;;;11.63;2.08;;;18.70;1.00;;;;;;4991218;28;20056;-89
2023/03/30 13:11:51;;;;;;;15.52;2.50;;;18.00;1.00;;;;;;4996919;28;20046;-88